PWSweather.com
Personal Weather Stations
Station Observations
COONRAPIDS
Minneapolis, MN 55433

Minneapolis, MN 55433

Lat: 45.187721, Lon: -93.36828

Elevation: 898

Station Type: Davis Vantage Pro 2

High Low Average
Temperature 36.6°F2.6°C 22.2°F-5.4°C 29.7°F-1.3°C
Dew Point 25.6°F-3.6°C 14.2°F-9.9°C 20.9°F-6.2°C
Winds 6.9 mph 11.1 kmh Calm Calm 2.0 mph SSW3.2 kmh SSW
Wind Gusts 16.1 mph25.9 kmh -- 5.0 mph8.0 kmh
Humidity 84% 54% 70%
Pressure 30.20 in1022.7 mb 29.75 in1007.5 mb -
Precipitation 0.00 in0.0 mm - -
Hour Temp Dew Point Humidity Winds Wind Gusts Pressure Precip Precip Rate Daily Precip Total
12:00 AM 30.0°F-1.1°C 24.3°F-4.3°C 79% Calm Calm 3.5 mph5.6 kmh 29.75 in1007.5 mb - 0.00 in0.0 mm 0.00 in0.0 mm
12:10 AM 29.9°F-1.2°C 24.2°F-4.3°C 79% 2.3 mph NE3.7 kmh NE 5.8 mph9.3 kmh 29.75 in1007.5 mb - 0.00 in0.0 mm 0.00 in0.0 mm
12:20 AM 29.9°F-1.2°C 24.2°F-4.3°C 79% 5.8 mph NE9.3 kmh NE 9.2 mph14.8 kmh 29.75 in1007.5 mb - 0.00 in0.0 mm 0.00 in0.0 mm
12:30 AM 29.8°F-1.2°C 23.7°F-4.6°C 78% 6.9 mph NE11.1 kmh NE 13.8 mph22.2 kmh 29.75 in1007.5 mb - 0.00 in0.0 mm 0.00 in0.0 mm
12:40 AM 29.7°F-1.3°C 23.7°F-4.6°C 78% 3.5 mph NNE5.6 kmh NNE 5.8 mph9.3 kmh 29.75 in1007.5 mb - 0.00 in0.0 mm 0.00 in0.0 mm
12:50 AM 29.7°F-1.3°C 23.6°F-4.7°C 78% 2.3 mph NE3.7 kmh NE 3.5 mph5.6 kmh 29.76 in1007.8 mb - 0.00 in0.0 mm 0.00 in0.0 mm
01:00 AM 29.6°F-1.3°C 23.9°F-4.5°C 79% 2.3 mph NE3.7 kmh NE 1.2 mph1.9 kmh 29.76 in1007.8 mb - 0.00 in0.0 mm 0.00 in0.0 mm
01:10 AM 29.5°F-1.4°C 23.8°F-4.6°C 79% 2.3 mph NE3.7 kmh NE 3.5 mph5.6 kmh 29.75 in1007.5 mb - 0.00 in0.0 mm 0.00 in0.0 mm
01:20 AM 29.4°F-1.4°C 23.4°F-4.8°C 78% 3.5 mph NE5.6 kmh NE 6.9 mph11.1 kmh 29.76 in1007.8 mb - 0.00 in0.0 mm 0.00 in0.0 mm
01:30 AM 29.3°F-1.5°C 23.6°F-4.7°C 79% 4.6 mph NNE7.4 kmh NNE 9.2 mph14.8 kmh 29.77 in1008.1 mb - 0.00 in0.0 mm 0.00 in0.0 mm
01:40 AM 29.2°F-1.6°C 23.2°F-4.9°C 78% 2.3 mph NNE3.7 kmh NNE 3.5 mph5.6 kmh 29.77 in1008.1 mb - 0.00 in0.0 mm 0.00 in0.0 mm
01:50 AM 29.2°F-1.6°C 23.2°F-4.9°C 78% 2.3 mph NNE3.7 kmh NNE 3.5 mph5.6 kmh 29.76 in1007.8 mb - 0.00 in0.0 mm 0.00 in0.0 mm
02:00 AM 29.1°F-1.6°C 23.1°F-4.9°C 78% 4.6 mph NNE7.4 kmh NNE 8.1 mph13.0 kmh 29.76 in1007.8 mb - 0.00 in0.0 mm 0.00 in0.0 mm
02:10 AM 29.0°F-1.7°C 23.0°F-5.0°C 78% 1.2 mph N1.9 kmh N 6.9 mph11.1 kmh 29.76 in1007.8 mb - 0.00 in0.0 mm 0.00 in0.0 mm
02:20 AM 28.9°F-1.7°C 22.9°F-5.1°C 78% 3.5 mph NNE5.6 kmh NNE 8.1 mph13.0 kmh 29.76 in1007.8 mb - 0.00 in0.0 mm 0.00 in0.0 mm
02:30 AM 28.7°F-1.8°C 23.0°F-5.0°C 79% 3.5 mph NNE5.6 kmh NNE 3.5 mph5.6 kmh 29.76 in1007.8 mb - 0.00 in0.0 mm 0.00 in0.0 mm
02:40 AM 28.6°F-1.9°C 22.9°F-5.1°C 79% 3.5 mph NNE5.6 kmh NNE 8.1 mph13.0 kmh 29.76 in1007.8 mb - 0.00 in0.0 mm 0.00 in0.0 mm
02:50 AM 28.5°F-1.9°C 22.8°F-5.1°C 79% 2.3 mph N3.7 kmh N 4.6 mph7.4 kmh 29.76 in1007.8 mb - 0.00 in0.0 mm 0.00 in0.0 mm
03:00 AM 28.4°F-2.0°C 22.7°F-5.2°C 79% 2.3 mph NNE3.7 kmh NNE 4.6 mph7.4 kmh 29.76 in1007.8 mb - 0.00 in0.0 mm 0.00 in0.0 mm
03:10 AM 28.3°F-2.1°C 22.6°F-5.2°C 79% 2.3 mph NNE3.7 kmh NNE 3.5 mph5.6 kmh 29.76 in1007.8 mb - 0.00 in0.0 mm 0.00 in0.0 mm
03:20 AM 28.1°F-2.2°C 22.7°F-5.2°C 80% 3.5 mph NNE5.6 kmh NNE 3.5 mph5.6 kmh 29.75 in1007.5 mb - 0.00 in0.0 mm 0.00 in0.0 mm
03:30 AM 27.8°F-2.3°C 22.7°F-5.2°C 81% 4.6 mph NNE7.4 kmh NNE 6.9 mph11.1 kmh 29.75 in1007.5 mb - 0.00 in0.0 mm 0.00 in0.0 mm
03:40 AM 27.7°F-2.4°C 22.3°F-5.4°C 80% 3.5 mph N5.6 kmh N 6.9 mph11.1 kmh 29.75 in1007.5 mb - 0.00 in0.0 mm 0.00 in0.0 mm
03:50 AM 27.7°F-2.4°C 22.3°F-5.4°C 80% 3.5 mph N5.6 kmh N 3.5 mph5.6 kmh 29.75 in1007.5 mb - 0.00 in0.0 mm 0.00 in0.0 mm
04:00 AM 27.7°F-2.4°C 22.0°F-5.6°C 79% 3.5 mph NNE5.6 kmh NNE 8.1 mph13.0 kmh 29.76 in1007.8 mb - 0.00 in0.0 mm 0.00 in0.0 mm
04:10 AM 27.7°F-2.4°C 22.0°F-5.6°C 79% 3.5 mph N5.6 kmh N 9.2 mph14.8 kmh 29.77 in1008.1 mb - 0.00 in0.0 mm 0.00 in0.0 mm
04:20 AM 27.4°F-2.6°C 22.3°F-5.4°C 81% 2.3 mph N3.7 kmh N 9.2 mph14.8 kmh 29.78 in1008.5 mb - 0.00 in0.0 mm 0.00 in0.0 mm
04:30 AM 27.1°F-2.7°C 22.6°F-5.2°C 83% 3.5 mph NNE5.6 kmh NNE 3.5 mph5.6 kmh 29.79 in1008.8 mb - 0.00 in0.0 mm 0.00 in0.0 mm
04:40 AM 26.9°F-2.8°C 22.7°F-5.2°C 84% Calm Calm -- 29.80 in1009.1 mb - 0.00 in0.0 mm 0.00 in0.0 mm
04:50 AM 26.9°F-2.8°C 22.7°F-5.2°C 84% 3.5 mph NNE5.6 kmh NNE 4.6 mph7.4 kmh 29.80 in1009.1 mb - 0.00 in0.0 mm 0.00 in0.0 mm
05:00 AM 26.7°F-2.9°C 22.5°F-5.3°C 84% 3.5 mph N5.6 kmh N 5.8 mph9.3 kmh 29.80 in1009.1 mb - 0.00 in0.0 mm 0.00 in0.0 mm
05:10 AM 26.7°F-2.9°C 22.5°F-5.3°C 84% 2.3 mph NNE3.7 kmh NNE 3.5 mph5.6 kmh 29.81 in1009.5 mb - 0.00 in0.0 mm 0.00 in0.0 mm
05:20 AM 26.6°F-3.0°C 22.4°F-5.3°C 84% 2.3 mph NNE3.7 kmh NNE 3.5 mph5.6 kmh 29.81 in1009.5 mb - 0.00 in0.0 mm 0.00 in0.0 mm
05:30 AM 26.7°F-2.9°C 22.2°F-5.4°C 83% 3.5 mph NNE5.6 kmh NNE 6.9 mph11.1 kmh 29.81 in1009.5 mb - 0.00 in0.0 mm 0.00 in0.0 mm
05:40 AM 26.9°F-2.8°C 21.8°F-5.7°C 81% 6.9 mph NNE11.1 kmh NNE 13.8 mph22.2 kmh 29.81 in1009.5 mb - 0.00 in0.0 mm 0.00 in0.0 mm
05:50 AM 26.9°F-2.8°C 21.6°F-5.8°C 80% 1.2 mph NNE1.9 kmh NNE 2.3 mph3.7 kmh 29.82 in1009.8 mb - 0.00 in0.0 mm 0.00 in0.0 mm
06:00 AM 26.9°F-2.8°C 21.6°F-5.8°C 80% 1.2 mph NNE1.9 kmh NNE 3.5 mph5.6 kmh 29.82 in1009.8 mb - 0.00 in0.0 mm 0.00 in0.0 mm
06:10 AM 26.9°F-2.8°C 21.6°F-5.8°C 80% 1.2 mph N1.9 kmh N 6.9 mph11.1 kmh 29.82 in1009.8 mb - 0.00 in0.0 mm 0.00 in0.0 mm
06:20 AM 26.9°F-2.8°C 21.6°F-5.8°C 80% 2.3 mph N3.7 kmh N 3.5 mph5.6 kmh 29.82 in1009.8 mb - 0.00 in0.0 mm 0.00 in0.0 mm
06:30 AM 27.0°F-2.8°C 21.7°F-5.7°C 80% 2.3 mph NNE3.7 kmh NNE 8.1 mph13.0 kmh 29.82 in1009.8 mb - 0.00 in0.0 mm 0.00 in0.0 mm
06:40 AM 27.0°F-2.8°C 21.7°F-5.7°C 80% 2.3 mph N3.7 kmh N 2.3 mph3.7 kmh 29.82 in1009.8 mb - 0.00 in0.0 mm 0.00 in0.0 mm
06:50 AM 26.9°F-2.8°C 21.3°F-5.9°C 79% 2.3 mph N3.7 kmh N 6.9 mph11.1 kmh 29.83 in1010.2 mb - 0.00 in0.0 mm 0.00 in0.0 mm
07:00 AM 26.8°F-2.9°C 20.9°F-6.2°C 78% 3.5 mph N5.6 kmh N 4.6 mph7.4 kmh 29.83 in1010.2 mb - 0.00 in0.0 mm 0.00 in0.0 mm
07:10 AM 26.7°F-2.9°C 20.8°F-6.2°C 78% 3.5 mph NNE5.6 kmh NNE 8.1 mph13.0 kmh 29.83 in1010.2 mb - 0.00 in0.0 mm 0.00 in0.0 mm
07:20 AM 26.7°F-2.9°C 20.8°F-6.2°C 78% 2.3 mph N3.7 kmh N 3.5 mph5.6 kmh 29.84 in1010.5 mb - 0.00 in0.0 mm 0.00 in0.0 mm
07:30 AM 26.8°F-2.9°C 21.2°F-6.0°C 79% 3.5 mph NNW5.6 kmh NNW 3.5 mph5.6 kmh 29.84 in1010.5 mb - 0.00 in0.0 mm 0.00 in0.0 mm
07:40 AM 26.9°F-2.8°C 21.2°F-6.0°C 79% 3.5 mph N5.6 kmh N 5.8 mph9.3 kmh 29.84 in1010.5 mb - 0.00 in0.0 mm 0.00 in0.0 mm
07:50 AM 26.9°F-2.8°C 20.7°F-6.3°C 77% 3.5 mph N5.6 kmh N 5.8 mph9.3 kmh 29.85 in1010.8 mb - 0.00 in0.0 mm 0.00 in0.0 mm
08:00 AM 26.8°F-2.9°C 20.2°F-6.6°C 76% 4.6 mph N7.4 kmh N 4.6 mph7.4 kmh 29.86 in1011.2 mb - 0.00 in0.0 mm 0.00 in0.0 mm
08:10 AM 26.8°F-2.9°C 20.2°F-6.6°C 76% 2.3 mph N3.7 kmh N 6.9 mph11.1 kmh 29.86 in1011.2 mb - 0.00 in0.0 mm 0.00 in0.0 mm
08:20 AM 26.8°F-2.9°C 19.9°F-6.7°C 75% 5.8 mph N9.3 kmh N 11.5 mph18.5 kmh 29.86 in1011.2 mb - 0.00 in0.0 mm 0.00 in0.0 mm
08:30 AM 26.8°F-2.9°C 19.9°F-6.7°C 75% 3.5 mph NNE5.6 kmh NNE 4.6 mph7.4 kmh 29.87 in1011.5 mb - 0.00 in0.0 mm 0.00 in0.0 mm
08:40 AM 26.9°F-2.8°C 20.0°F-6.7°C 75% 3.5 mph N5.6 kmh N 8.1 mph13.0 kmh 29.87 in1011.5 mb - 0.00 in0.0 mm 0.00 in0.0 mm
08:50 AM 27.1°F-2.7°C 19.9°F-6.7°C 74% 1.2 mph N1.9 kmh N 2.3 mph3.7 kmh 29.88 in1011.9 mb - 0.00 in0.0 mm 0.00 in0.0 mm
09:00 AM 27.3°F-2.6°C 19.8°F-6.8°C 73% 2.3 mph N3.7 kmh N 4.6 mph7.4 kmh 29.88 in1011.9 mb - 0.00 in0.0 mm 0.00 in0.0 mm
09:10 AM 27.6°F-2.4°C 20.1°F-6.6°C 73% 2.3 mph N3.7 kmh N 4.6 mph7.4 kmh 29.89 in1012.2 mb - 0.00 in0.0 mm 0.00 in0.0 mm
09:20 AM 27.9°F-2.3°C 20.4°F-6.4°C 73% 1.2 mph N1.9 kmh N 2.3 mph3.7 kmh 29.89 in1012.2 mb - 0.00 in0.0 mm 0.00 in0.0 mm
09:30 AM 28.2°F-2.1°C 20.7°F-6.3°C 73% 1.2 mph N1.9 kmh N 1.2 mph1.9 kmh 29.89 in1012.2 mb - 0.00 in0.0 mm 0.00 in0.0 mm
09:40 AM 28.7°F-1.8°C 20.8°F-6.2°C 72% 1.2 mph NNW1.9 kmh NNW 3.5 mph5.6 kmh 29.89 in1012.2 mb - 0.00 in0.0 mm 0.00 in0.0 mm
09:50 AM 29.0°F-1.7°C 21.1°F-6.1°C 72% 1.2 mph NNE1.9 kmh NNE 3.5 mph5.6 kmh 29.89 in1012.2 mb - 0.00 in0.0 mm 0.00 in0.0 mm
10:00 AM 29.4°F-1.4°C 21.2°F-6.0°C 71% Calm Calm -- 29.89 in1012.2 mb - 0.00 in0.0 mm 0.00 in0.0 mm
10:10 AM 30.2°F-1.0°C 22.0°F-5.6°C 71% 2.3 mph NE3.7 kmh NE 3.5 mph5.6 kmh 29.90 in1012.5 mb - 0.00 in0.0 mm 0.00 in0.0 mm
10:20 AM 31.7°F-0.2°C 22.4°F-5.3°C 68% 2.3 mph N3.7 kmh N 3.5 mph5.6 kmh 29.90 in1012.5 mb - 0.00 in0.0 mm 0.00 in0.0 mm
10:30 AM 32.3°F0.2°C 22.6°F-5.2°C 67% Calm Calm 2.3 mph3.7 kmh 29.90 in1012.5 mb - 0.00 in0.0 mm 0.00 in0.0 mm
10:40 AM 32.4°F0.2°C 22.3°F-5.4°C 66% Calm Calm 2.3 mph3.7 kmh 29.91 in1012.9 mb - 0.00 in0.0 mm 0.00 in0.0 mm
10:50 AM 32.3°F0.2°C 22.5°F-5.3°C 67% Calm Calm -- 29.91 in1012.9 mb - 0.00 in0.0 mm 0.00 in0.0 mm
11:00 AM 33.0°F0.6°C 22.5°F-5.3°C 65% 2.3 mph NNW3.7 kmh NNW 3.5 mph5.6 kmh 29.91 in1012.9 mb - 0.00 in0.0 mm 0.00 in0.0 mm
11:10 AM 32.9°F0.5°C 22.0°F-5.6°C 64% 3.5 mph N5.6 kmh N 9.2 mph14.8 kmh 29.91 in1012.9 mb - 0.00 in0.0 mm 0.00 in0.0 mm
11:20 AM 33.0°F0.6°C 22.1°F-5.5°C 64% 1.2 mph NNW1.9 kmh NNW 3.5 mph5.6 kmh 29.91 in1012.9 mb - 0.00 in0.0 mm 0.00 in0.0 mm
11:30 AM 34.2°F1.2°C 22.6°F-5.2°C 62% 1.2 mph N1.9 kmh N 5.8 mph9.3 kmh 29.92 in1013.2 mb - 0.00 in0.0 mm 0.00 in0.0 mm
11:40 AM 34.0°F1.1°C 22.0°F-5.6°C 61% 2.3 mph NW3.7 kmh NW 3.5 mph5.6 kmh 29.92 in1013.2 mb - 0.00 in0.0 mm 0.00 in0.0 mm
11:50 AM 33.9°F1.1°C 22.2°F-5.4°C 62% 2.3 mph N3.7 kmh N 5.8 mph9.3 kmh 29.92 in1013.2 mb - 0.00 in0.0 mm 0.00 in0.0 mm
12:00 PM 34.8°F1.6°C 21.9°F-5.6°C 59% 2.3 mph NNW3.7 kmh NNW 5.8 mph9.3 kmh 29.92 in1013.2 mb - 0.00 in0.0 mm 0.00 in0.0 mm
12:10 PM 34.8°F1.6°C 21.5°F-5.8°C 58% 3.5 mph N5.6 kmh N 4.6 mph7.4 kmh 29.93 in1013.5 mb - 0.00 in0.0 mm 0.00 in0.0 mm
12:20 PM 34.8°F1.6°C 21.9°F-5.6°C 59% Calm Calm -- 29.93 in1013.5 mb - 0.00 in0.0 mm 0.00 in0.0 mm
12:30 PM 35.3°F1.8°C 21.2°F-6.0°C 56% 1.2 mph N1.9 kmh N 4.6 mph7.4 kmh 29.93 in1013.5 mb - 0.00 in0.0 mm 0.00 in0.0 mm
12:40 PM 34.7°F1.5°C 20.6°F-6.3°C 56% Calm Calm 3.5 mph5.6 kmh 29.94 in1013.9 mb - 0.00 in0.0 mm 0.00 in0.0 mm
12:50 PM 35.0°F1.7°C 20.9°F-6.2°C 56% 2.3 mph NNE3.7 kmh NNE 8.1 mph13.0 kmh 29.94 in1013.9 mb - 0.00 in0.0 mm 0.00 in0.0 mm
01:00 PM 35.6°F2.0°C 21.5°F-5.8°C 56% 1.2 mph NNW1.9 kmh NNW 2.3 mph3.7 kmh 29.93 in1013.5 mb - 0.00 in0.0 mm 0.00 in0.0 mm
01:10 PM 35.7°F2.1°C 21.1°F-6.1°C 55% 1.2 mph N1.9 kmh N 3.5 mph5.6 kmh 29.93 in1013.5 mb - 0.00 in0.0 mm 0.00 in0.0 mm
01:20 PM 35.7°F2.1°C 21.1°F-6.1°C 55% 1.2 mph NNW1.9 kmh NNW 2.3 mph3.7 kmh 29.93 in1013.5 mb - 0.00 in0.0 mm 0.00 in0.0 mm
01:30 PM 36.4°F2.4°C 21.3°F-5.9°C 54% 2.3 mph NNW3.7 kmh NNW 3.5 mph5.6 kmh 29.93 in1013.5 mb - 0.00 in0.0 mm 0.00 in0.0 mm
01:40 PM 35.7°F2.1°C 21.5°F-5.8°C 56% 1.2 mph WNW1.9 kmh WNW 5.8 mph9.3 kmh 29.93 in1013.5 mb - 0.00 in0.0 mm 0.00 in0.0 mm
01:50 PM 36.4°F2.4°C 22.2°F-5.4°C 56% 2.3 mph NNW3.7 kmh NNW 4.6 mph7.4 kmh 29.93 in1013.5 mb - 0.00 in0.0 mm 0.00 in0.0 mm
02:00 PM 36.6°F2.6°C 22.8°F-5.1°C 57% 1.2 mph NNW1.9 kmh NNW 2.3 mph3.7 kmh 29.94 in1013.9 mb - 0.00 in0.0 mm 0.00 in0.0 mm
02:10 PM 35.9°F2.2°C 20.8°F-6.2°C 54% 3.5 mph NW5.6 kmh NW 5.8 mph9.3 kmh 29.94 in1013.9 mb - 0.00 in0.0 mm 0.00 in0.0 mm
02:20 PM 35.5°F1.9°C 22.2°F-5.4°C 58% Calm Calm -- 29.95 in1014.2 mb - 0.00 in0.0 mm 0.00 in0.0 mm
02:30 PM 35.7°F2.1°C 21.9°F-5.6°C 57% Calm Calm 4.6 mph7.4 kmh 29.95 in1014.2 mb - 0.00 in0.0 mm 0.00 in0.0 mm
02:40 PM 35.7°F2.1°C 22.3°F-5.4°C 58% 3.5 mph WSW5.6 kmh WSW 5.8 mph9.3 kmh 29.95 in1014.2 mb - 0.00 in0.0 mm 0.00 in0.0 mm
02:50 PM 35.6°F2.0°C 22.3°F-5.4°C 58% 2.3 mph WNW3.7 kmh WNW 5.8 mph9.3 kmh 29.96 in1014.6 mb - 0.00 in0.0 mm 0.00 in0.0 mm
03:00 PM 35.2°F1.8°C 21.9°F-5.6°C 58% 1.2 mph NW1.9 kmh NW -- 29.96 in1014.6 mb - 0.00 in0.0 mm 0.00 in0.0 mm
03:10 PM 36.0°F2.2°C 21.8°F-5.7°C 56% 2.3 mph NW3.7 kmh NW 4.6 mph7.4 kmh 29.96 in1014.6 mb - 0.00 in0.0 mm 0.00 in0.0 mm
03:20 PM 35.5°F1.9°C 21.3°F-5.9°C 56% Calm Calm 4.6 mph7.4 kmh 29.96 in1014.6 mb - 0.00 in0.0 mm 0.00 in0.0 mm
03:30 PM 35.5°F1.9°C 20.9°F-6.2°C 55% 2.3 mph W3.7 kmh W 3.5 mph5.6 kmh 29.97 in1014.9 mb - 0.00 in0.0 mm 0.00 in0.0 mm
03:40 PM 35.4°F1.9°C 20.8°F-6.2°C 55% 2.3 mph NW3.7 kmh NW 8.1 mph13.0 kmh 29.97 in1014.9 mb - 0.00 in0.0 mm 0.00 in0.0 mm
03:50 PM 35.3°F1.8°C 21.2°F-6.0°C 56% Calm Calm 3.5 mph5.6 kmh 29.98 in1015.2 mb - 0.00 in0.0 mm 0.00 in0.0 mm
04:00 PM 35.5°F1.9°C 20.9°F-6.2°C 55% 1.2 mph NW1.9 kmh NW 5.8 mph9.3 kmh 29.98 in1015.2 mb - 0.00 in0.0 mm 0.00 in0.0 mm
04:10 PM 35.4°F1.9°C 20.4°F-6.4°C 54% 3.5 mph NW5.6 kmh NW 4.6 mph7.4 kmh 29.98 in1015.2 mb - 0.00 in0.0 mm 0.00 in0.0 mm
04:20 PM 35.1°F1.7°C 20.5°F-6.4°C 55% Calm Calm 3.5 mph5.6 kmh 29.98 in1015.2 mb - 0.00 in0.0 mm 0.00 in0.0 mm
04:30 PM 34.8°F1.6°C 21.1°F-6.1°C 57% 2.3 mph WSW3.7 kmh WSW 2.3 mph3.7 kmh 29.99 in1015.6 mb - 0.00 in0.0 mm 0.00 in0.0 mm
04:40 PM 34.3°F1.3°C 21.8°F-5.7°C 60% 2.3 mph WNW3.7 kmh WNW 9.2 mph14.8 kmh 30.00 in1015.9 mb - 0.00 in0.0 mm 0.00 in0.0 mm
04:50 PM 33.2°F0.7°C 23.4°F-4.8°C 67% 4.6 mph NW7.4 kmh NW 5.8 mph9.3 kmh 30.01 in1016.3 mb - 0.00 in0.0 mm 0.00 in0.0 mm
05:00 PM 31.6°F-0.2°C 24.6°F-4.1°C 75% 3.5 mph NW5.6 kmh NW 6.9 mph11.1 kmh 30.02 in1016.6 mb - 0.00 in0.0 mm 0.00 in0.0 mm
05:10 PM 31.0°F-0.6°C 25.6°F-3.6°C 80% 1.2 mph WNW1.9 kmh WNW 5.8 mph9.3 kmh 30.02 in1016.6 mb - 0.00 in0.0 mm 0.00 in0.0 mm
05:20 PM 31.0°F-0.6°C 25.2°F-3.8°C 79% 1.2 mph NW1.9 kmh NW 8.1 mph13.0 kmh 30.02 in1016.6 mb - 0.00 in0.0 mm 0.00 in0.0 mm
05:30 PM 31.0°F-0.6°C 25.0°F-3.9°C 78% 2.3 mph WNW3.7 kmh WNW 9.2 mph14.8 kmh 30.03 in1016.9 mb - 0.00 in0.0 mm 0.00 in0.0 mm
05:40 PM 30.9°F-0.6°C 24.8°F-4.0°C 78% Calm Calm -- 30.03 in1016.9 mb - 0.00 in0.0 mm 0.00 in0.0 mm
05:50 PM 30.9°F-0.6°C 24.2°F-4.3°C 76% 2.3 mph W3.7 kmh W 3.5 mph5.6 kmh 30.04 in1017.3 mb - 0.00 in0.0 mm 0.00 in0.0 mm
06:00 PM 31.0°F-0.6°C 23.4°F-4.8°C 73% 1.2 mph W1.9 kmh W 6.9 mph11.1 kmh 30.04 in1017.3 mb - 0.00 in0.0 mm 0.00 in0.0 mm
06:10 PM 31.1°F-0.5°C 22.1°F-5.5°C 69% 2.3 mph NW3.7 kmh NW 2.3 mph3.7 kmh 30.04 in1017.3 mb - 0.00 in0.0 mm 0.00 in0.0 mm
06:20 PM 31.1°F-0.5°C 21.8°F-5.7°C 68% 2.3 mph NNW3.7 kmh NNW 4.6 mph7.4 kmh 30.05 in1017.6 mb - 0.00 in0.0 mm 0.00 in0.0 mm
06:30 PM 31.2°F-0.4°C 21.2°F-6.0°C 66% 1.2 mph WNW1.9 kmh WNW 5.8 mph9.3 kmh 30.05 in1017.6 mb - 0.00 in0.0 mm 0.00 in0.0 mm
06:40 PM 31.1°F-0.5°C 20.7°F-6.3°C 65% 1.2 mph NW1.9 kmh NW 5.8 mph9.3 kmh 30.06 in1017.9 mb - 0.00 in0.0 mm 0.00 in0.0 mm
06:50 PM 30.6°F-0.8°C 20.2°F-6.6°C 65% 3.5 mph WNW5.6 kmh WNW 3.5 mph5.6 kmh 30.07 in1018.3 mb - 0.00 in0.0 mm 0.00 in0.0 mm
07:00 PM 30.1°F-1.1°C 20.5°F-6.4°C 67% 2.3 mph NW3.7 kmh NW 8.1 mph13.0 kmh 30.08 in1018.6 mb - 0.00 in0.0 mm 0.00 in0.0 mm
07:10 PM 29.9°F-1.2°C 19.9°F-6.7°C 66% 3.5 mph WNW5.6 kmh WNW 6.9 mph11.1 kmh 30.08 in1018.6 mb - 0.00 in0.0 mm 0.00 in0.0 mm
07:20 PM 29.7°F-1.3°C 19.7°F-6.8°C 66% 2.3 mph NW3.7 kmh NW 10.4 mph16.7 kmh 30.08 in1018.6 mb - 0.00 in0.0 mm 0.00 in0.0 mm
07:30 PM 29.3°F-1.5°C 19.4°F-7.0°C 66% 4.6 mph NW7.4 kmh NW 16.1 mph25.9 kmh 30.09 in1019.0 mb - 0.00 in0.0 mm 0.00 in0.0 mm
07:40 PM 29.0°F-1.7°C 19.0°F-7.2°C 66% 3.5 mph NNW5.6 kmh NNW 3.5 mph5.6 kmh 30.09 in1019.0 mb - 0.00 in0.0 mm 0.00 in0.0 mm
07:50 PM 28.6°F-1.9°C 18.7°F-7.4°C 66% 1.2 mph WNW1.9 kmh WNW 6.9 mph11.1 kmh 30.10 in1019.3 mb - 0.00 in0.0 mm 0.00 in0.0 mm
08:00 PM 28.0°F-2.2°C 18.1°F-7.7°C 66% 2.3 mph WNW3.7 kmh WNW 10.4 mph16.7 kmh 30.10 in1019.3 mb - 0.00 in0.0 mm 0.00 in0.0 mm
08:10 PM 27.5°F-2.5°C 17.6°F-8.0°C 66% 3.5 mph WNW5.6 kmh WNW 11.5 mph18.5 kmh 30.11 in1019.6 mb - 0.00 in0.0 mm 0.00 in0.0 mm
08:20 PM 27.0°F-2.8°C 17.2°F-8.2°C 66% 3.5 mph WNW5.6 kmh WNW 9.2 mph14.8 kmh 30.11 in1019.6 mb - 0.00 in0.0 mm 0.00 in0.0 mm
08:30 PM 26.7°F-2.9°C 16.9°F-8.4°C 66% 3.5 mph NW5.6 kmh NW 4.6 mph7.4 kmh 30.12 in1020.0 mb - 0.00 in0.0 mm 0.00 in0.0 mm
08:40 PM 26.5°F-3.1°C 17.1°F-8.3°C 67% 2.3 mph NW3.7 kmh NW 9.2 mph14.8 kmh 30.12 in1020.0 mb - 0.00 in0.0 mm 0.00 in0.0 mm
08:50 PM 26.3°F-3.2°C 16.8°F-8.4°C 67% 3.5 mph NW5.6 kmh NW 9.2 mph14.8 kmh 30.13 in1020.3 mb - 0.00 in0.0 mm 0.00 in0.0 mm
09:00 PM 26.2°F-3.2°C 16.7°F-8.5°C 67% 1.2 mph NW1.9 kmh NW 4.6 mph7.4 kmh 30.14 in1020.7 mb - 0.00 in0.0 mm 0.00 in0.0 mm
09:10 PM 26.0°F-3.3°C 16.2°F-8.8°C 66% Calm Calm 2.3 mph3.7 kmh 30.14 in1020.7 mb - 0.00 in0.0 mm 0.00 in0.0 mm
09:20 PM 25.6°F-3.6°C 15.8°F-9.0°C 66% 3.5 mph NW5.6 kmh NW 5.8 mph9.3 kmh 30.15 in1021.0 mb - 0.00 in0.0 mm 0.00 in0.0 mm
09:30 PM 25.2°F-3.8°C 15.4°F-9.2°C 66% 2.3 mph NW3.7 kmh NW 8.1 mph13.0 kmh 30.16 in1021.3 mb - 0.00 in0.0 mm 0.00 in0.0 mm
09:40 PM 25.0°F-3.9°C 15.6°F-9.1°C 67% 2.3 mph NW3.7 kmh NW 5.8 mph9.3 kmh 30.16 in1021.3 mb - 0.00 in0.0 mm 0.00 in0.0 mm
09:50 PM 24.9°F-3.9°C 15.5°F-9.2°C 67% 1.2 mph NW1.9 kmh NW 3.5 mph5.6 kmh 30.16 in1021.3 mb - 0.00 in0.0 mm 0.00 in0.0 mm
10:00 PM 24.8°F-4.0°C 15.7°F-9.1°C 68% 2.3 mph NW3.7 kmh NW 6.9 mph11.1 kmh 30.16 in1021.3 mb - 0.00 in0.0 mm 0.00 in0.0 mm
10:10 PM 24.6°F-4.1°C 15.5°F-9.2°C 68% 3.5 mph NW5.6 kmh NW 3.5 mph5.6 kmh 30.16 in1021.3 mb - 0.00 in0.0 mm 0.00 in0.0 mm
10:20 PM 24.4°F-4.2°C 15.3°F-9.3°C 68% 2.3 mph WNW3.7 kmh WNW 5.8 mph9.3 kmh 30.17 in1021.7 mb - 0.00 in0.0 mm 0.00 in0.0 mm
10:30 PM 24.2°F-4.3°C 15.2°F-9.3°C 68% Calm Calm 3.5 mph5.6 kmh 30.17 in1021.7 mb - 0.00 in0.0 mm 0.00 in0.0 mm
10:40 PM 24.1°F-4.4°C 15.3°F-9.3°C 69% Calm Calm 4.6 mph7.4 kmh 30.18 in1022.0 mb - 0.00 in0.0 mm 0.00 in0.0 mm
10:50 PM 23.9°F-4.5°C 15.2°F-9.3°C 69% 2.3 mph WNW3.7 kmh WNW 6.9 mph11.1 kmh 30.18 in1022.0 mb - 0.00 in0.0 mm 0.00 in0.0 mm
11:00 PM 23.8°F-4.6°C 15.1°F-9.4°C 69% 1.2 mph W1.9 kmh W 3.5 mph5.6 kmh 30.18 in1022.0 mb - 0.00 in0.0 mm 0.00 in0.0 mm
11:10 PM 23.5°F-4.7°C 14.8°F-9.6°C 69% 1.2 mph WNW1.9 kmh WNW 3.5 mph5.6 kmh 30.19 in1022.4 mb - 0.00 in0.0 mm 0.00 in0.0 mm
11:20 PM 23.1°F-4.9°C 14.7°F-9.6°C 70% 1.2 mph N1.9 kmh N -- 30.19 in1022.4 mb - 0.00 in0.0 mm 0.00 in0.0 mm
11:30 PM 22.7°F-5.2°C 14.4°F-9.8°C 70% Calm Calm 2.3 mph3.7 kmh 30.19 in1022.4 mb - 0.00 in0.0 mm 0.00 in0.0 mm
11:40 PM 22.4°F-5.3°C 14.4°F-9.8°C 71% Calm Calm -- 30.19 in1022.4 mb - 0.00 in0.0 mm 0.00 in0.0 mm
11:50 PM 22.2°F-5.4°C 14.2°F-9.9°C 71% 1.2 mph NNW1.9 kmh NNW 3.5 mph5.6 kmh 30.20 in1022.7 mb - 0.00 in0.0 mm 0.00 in0.0 mm